sensor_id;sensor_type;location;lat;lon;timestamp;temperature;humidity
652;DHT22;310;48.490;9.200;2023-06-19T00:01:43;28.40;19.50
652;DHT22;310;48.490;9.200;2023-06-19T00:04:09;28.40;19.20
652;DHT22;310;48.490;9.200;2023-06-19T00:06:35;28.30;19.30
652;DHT22;310;48.490;9.200;2023-06-19T00:09:01;28.30;19.30
652;DHT22;310;48.490;9.200;2023-06-19T00:11:27;28.00;19.80
652;DHT22;310;48.490;9.200;2023-06-19T00:13:53;28.10;21.30
652;DHT22;310;48.490;9.200;2023-06-19T00:16:18;28.00;21.00
652;DHT22;310;48.490;9.200;2023-06-19T00:18:45;28.00;21.40
652;DHT22;310;48.490;9.200;2023-06-19T00:21:10;28.00;21.70
652;DHT22;310;48.490;9.200;2023-06-19T00:23:36;28.00;21.50
652;DHT22;310;48.490;9.200;2023-06-19T00:26:03;28.00;21.50
652;DHT22;310;48.490;9.200;2023-06-19T00:28:30;27.90;22.30
652;DHT22;310;48.490;9.200;2023-06-19T00:30:56;27.90;22.40
652;DHT22;310;48.490;9.200;2023-06-19T00:33:22;27.80;22.50
652;DHT22;310;48.490;9.200;2023-06-19T00:35:50;27.60;23.70
652;DHT22;310;48.490;9.200;2023-06-19T00:38:16;27.40;23.90
652;DHT22;310;48.490;9.200;2023-06-19T00:40:41;27.40;24.10
652;DHT22;310;48.490;9.200;2023-06-19T00:43:07;27.30;24.10
652;DHT22;310;48.490;9.200;2023-06-19T00:45:32;27.10;24.60
652;DHT22;310;48.490;9.200;2023-06-19T00:47:59;27.10;23.50
652;DHT22;310;48.490;9.200;2023-06-19T00:50:25;27.30;23.00
652;DHT22;310;48.490;9.200;2023-06-19T00:52:51;27.40;23.50
652;DHT22;310;48.490;9.200;2023-06-19T00:55:17;27.30;22.90
652;DHT22;310;48.490;9.200;2023-06-19T00:57:44;27.20;24.40
652;DHT22;310;48.490;9.200;2023-06-19T01:00:11;27.00;24.50
652;DHT22;310;48.490;9.200;2023-06-19T01:02:38;27.10;23.90
652;DHT22;310;48.490;9.200;2023-06-19T01:05:04;27.00;23.90
652;DHT22;310;48.490;9.200;2023-06-19T01:10:16;26.90;24.20
652;DHT22;310;48.490;9.200;2023-06-19T01:12:57;26.90;25.30
652;DHT22;310;48.490;9.200;2023-06-19T01:15:25;27.00;24.10
652;DHT22;310;48.490;9.200;2023-06-19T01:17:52;26.90;24.80
652;DHT22;310;48.490;9.200;2023-06-19T01:20:18;27.00;23.80
652;DHT22;310;48.490;9.200;2023-06-19T01:22:43;26.90;24.30
652;DHT22;310;48.490;9.200;2023-06-19T01:25:10;26.80;24.20
652;DHT22;310;48.490;9.200;2023-06-19T01:27:39;26.80;25.30
652;DHT22;310;48.490;9.200;2023-06-19T01:30:05;26.60;24.30
652;DHT22;310;48.490;9.200;2023-06-19T01:35:07;25.50;25.00
652;DHT22;310;48.490;9.200;2023-06-19T01:37:38;26.00;24.40
652;DHT22;310;48.490;9.200;2023-06-19T01:40:06;26.40;23.50
652;DHT22;310;48.490;9.200;2023-06-19T01:42:36;25.50;25.30
652;DHT22;310;48.490;9.200;2023-06-19T01:45:04;25.30;25.70
652;DHT22;310;48.490;9.200;2023-06-19T01:47:30;25.00;26.20
652;DHT22;310;48.490;9.200;2023-06-19T01:49:55;25.30;25.90
652;DHT22;310;48.490;9.200;2023-06-19T01:52:21;25.10;26.00
652;DHT22;310;48.490;9.200;2023-06-19T01:54:46;25.50;25.20
652;DHT22;310;48.490;9.200;2023-06-19T01:57:12;25.50;25.10
652;DHT22;310;48.490;9.200;2023-06-19T01:59:38;25.40;25.40
652;DHT22;310;48.490;9.200;2023-06-19T02:02:04;25.70;25.00
652;DHT22;310;48.490;9.200;2023-06-19T02:04:32;26.30;24.10
652;DHT22;310;48.490;9.200;2023-06-19T02:06:57;26.50;23.70
652;DHT22;310;48.490;9.200;2023-06-19T02:09:23;26.70;23.60
652;DHT22;310;48.490;9.200;2023-06-19T02:11:48;25.80;24.90
652;DHT22;310;48.490;9.200;2023-06-19T02:14:14;26.10;24.50
652;DHT22;310;48.490;9.200;2023-06-19T02:16:39;26.30;24.60
652;DHT22;310;48.490;9.200;2023-06-19T02:19:09;26.10;24.90
652;DHT22;310;48.490;9.200;2023-06-19T02:21:35;26.10;25.00
652;DHT22;310;48.490;9.200;2023-06-19T02:24:01;26.10;25.40
652;DHT22;310;48.490;9.200;2023-06-19T02:26:26;26.40;25.10
652;DHT22;310;48.490;9.200;2023-06-19T02:28:55;26.30;25.10
652;DHT22;310;48.490;9.200;2023-06-19T02:31:21;26.40;25.30
652;DHT22;310;48.490;9.200;2023-06-19T02:33:47;26.50;24.60
652;DHT22;310;48.490;9.200;2023-06-19T02:36:13;26.50;25.70
652;DHT22;310;48.490;9.200;2023-06-19T02:38:47;26.50;24.50
652;DHT22;310;48.490;9.200;2023-06-19T02:41:13;26.50;25.40
652;DHT22;310;48.490;9.200;2023-06-19T02:43:40;26.50;25.70
652;DHT22;310;48.490;9.200;2023-06-19T02:46:06;26.30;24.80
652;DHT22;310;48.490;9.200;2023-06-19T02:48:32;26.20;25.90
652;DHT22;310;48.490;9.200;2023-06-19T02:50:57;26.30;26.00
652;DHT22;310;48.490;9.200;2023-06-19T02:53:23;26.40;26.30
652;DHT22;310;48.490;9.200;2023-06-19T02:55:48;26.40;26.20
652;DHT22;310;48.490;9.200;2023-06-19T02:58:14;26.40;25.50
652;DHT22;310;48.490;9.200;2023-06-19T03:00:39;26.50;25.30
652;DHT22;310;48.490;9.200;2023-06-19T03:03:05;26.50;25.70
652;DHT22;310;48.490;9.200;2023-06-19T03:05:31;26.40;25.70
652;DHT22;310;48.490;9.200;2023-06-19T03:07:56;26.40;25.60
652;DHT22;310;48.490;9.200;2023-06-19T03:10:22;26.40;25.80
652;DHT22;310;48.490;9.200;2023-06-19T03:12:48;26.40;26.30
652;DHT22;310;48.490;9.200;2023-06-19T03:15:13;26.30;26.10
652;DHT22;310;48.490;9.200;2023-06-19T03:17:39;26.40;26.00
652;DHT22;310;48.490;9.200;2023-06-19T03:20:05;26.30;25.30
652;DHT22;310;48.490;9.200;2023-06-19T03:22:31;26.40;25.40
652;DHT22;310;48.490;9.200;2023-06-19T03:24:57;26.50;25.60
652;DHT22;310;48.490;9.200;2023-06-19T03:27:22;26.60;25.70
652;DHT22;310;48.490;9.200;2023-06-19T03:29:50;26.60;25.10
652;DHT22;310;48.490;9.200;2023-06-19T03:32:15;26.60;25.90
652;DHT22;310;48.490;9.200;2023-06-19T03:34:42;26.30;25.90
652;DHT22;310;48.490;9.200;2023-06-19T03:37:07;26.30;25.40
652;DHT22;310;48.490;9.200;2023-06-19T03:39:33;26.30;25.20
652;DHT22;310;48.490;9.200;2023-06-19T03:41:59;26.40;25.50
652;DHT22;310;48.490;9.200;2023-06-19T03:44:24;26.30;26.50
652;DHT22;310;48.490;9.200;2023-06-19T03:46:50;26.40;25.10
652;DHT22;310;48.490;9.200;2023-06-19T03:49:16;26.40;26.30
652;DHT22;310;48.490;9.200;2023-06-19T03:51:42;26.50;25.60
652;DHT22;310;48.490;9.200;2023-06-19T03:54:08;26.20;24.90
652;DHT22;310;48.490;9.200;2023-06-19T03:56:33;25.80;25.90
652;DHT22;310;48.490;9.200;2023-06-19T03:58:59;25.90;25.30
652;DHT22;310;48.490;9.200;2023-06-19T04:01:24;25.40;26.30
652;DHT22;310;48.490;9.200;2023-06-19T04:03:50;25.50;26.30
652;DHT22;310;48.490;9.200;2023-06-19T04:06:15;25.40;26.30
652;DHT22;310;48.490;9.200;2023-06-19T04:08:41;25.10;26.70
652;DHT22;310;48.490;9.200;2023-06-19T04:11:06;25.40;26.40
652;DHT22;310;48.490;9.200;2023-06-19T04:13:32;25.50;26.50
652;DHT22;310;48.490;9.200;2023-06-19T04:15:58;25.30;26.50
652;DHT22;310;48.490;9.200;2023-06-19T04:18:23;25.00;27.10
652;DHT22;310;48.490;9.200;2023-06-19T04:20:49;25.70;26.20
652;DHT22;310;48.490;9.200;2023-06-19T04:23:14;25.90;25.70
652;DHT22;310;48.490;9.200;2023-06-19T04:25:40;26.00;25.60
652;DHT22;310;48.490;9.200;2023-06-19T04:28:05;25.90;25.70
652;DHT22;310;48.490;9.200;2023-06-19T04:30:31;25.90;26.20
652;DHT22;310;48.490;9.200;2023-06-19T04:32:59;26.20;26.40
652;DHT22;310;48.490;9.200;2023-06-19T04:35:25;26.20;25.70
652;DHT22;310;48.490;9.200;2023-06-19T04:37:51;26.40;27.00
652;DHT22;310;48.490;9.200;2023-06-19T04:40:16;26.40;26.20
652;DHT22;310;48.490;9.200;2023-06-19T04:42:42;25.80;27.70
652;DHT22;310;48.490;9.200;2023-06-19T04:45:08;25.80;28.30
652;DHT22;310;48.490;9.200;2023-06-19T04:47:34;25.60;30.60
652;DHT22;310;48.490;9.200;2023-06-19T04:50:00;25.60;31.80
652;DHT22;310;48.490;9.200;2023-06-19T04:52:26;25.70;31.80
652;DHT22;310;48.490;9.200;2023-06-19T04:54:51;25.70;32.30
652;DHT22;310;48.490;9.200;2023-06-19T04:57:17;25.70;32.60
652;DHT22;310;48.490;9.200;2023-06-19T04:59:43;25.60;31.90
652;DHT22;310;48.490;9.200;2023-06-19T05:02:10;25.60;31.40
652;DHT22;310;48.490;9.200;2023-06-19T05:04:36;25.80;30.90
652;DHT22;310;48.490;9.200;2023-06-19T05:07:01;25.80;32.00
652;DHT22;310;48.490;9.200;2023-06-19T05:09:28;25.80;31.40
652;DHT22;310;48.490;9.200;2023-06-19T05:11:54;25.70;33.20
652;DHT22;310;48.490;9.200;2023-06-19T05:14:19;25.40;32.00
652;DHT22;310;48.490;9.200;2023-06-19T05:16:45;25.50;32.00
652;DHT22;310;48.490;9.200;2023-06-19T05:19:10;25.50;34.80
652;DHT22;310;48.490;9.200;2023-06-19T05:21:36;25.50;35.50
652;DHT22;310;48.490;9.200;2023-06-19T05:24:02;25.50;36.00
652;DHT22;310;48.490;9.200;2023-06-19T05:26:27;25.50;35.90
652;DHT22;310;48.490;9.200;2023-06-19T05:28:53;25.50;35.90
652;DHT22;310;48.490;9.200;2023-06-19T05:31:19;25.50;37.20
652;DHT22;310;48.490;9.200;2023-06-19T05:33:45;25.60;37.20
652;DHT22;310;48.490;9.200;2023-06-19T05:36:10;25.50;36.50
652;DHT22;310;48.490;9.200;2023-06-19T05:38:36;25.60;37.00
652;DHT22;310;48.490;9.200;2023-06-19T05:41:02;25.60;37.00
652;DHT22;310;48.490;9.200;2023-06-19T05:43:28;25.80;36.90
652;DHT22;310;48.490;9.200;2023-06-19T05:45:54;25.80;34.50
652;DHT22;310;48.490;9.200;2023-06-19T05:48:25;25.60;35.20
652;DHT22;310;48.490;9.200;2023-06-19T05:50:50;25.40;34.10
652;DHT22;310;48.490;9.200;2023-06-19T05:53:16;25.30;36.40
652;DHT22;310;48.490;9.200;2023-06-19T05:55:41;25.30;36.40
652;DHT22;310;48.490;9.200;2023-06-19T05:58:07;25.10;35.10
652;DHT22;310;48.490;9.200;2023-06-19T06:00:32;24.70;36.70
652;DHT22;310;48.490;9.200;2023-06-19T06:02:58;25.10;36.60
652;DHT22;310;48.490;9.200;2023-06-19T06:05:27;24.70;37.30
652;DHT22;310;48.490;9.200;2023-06-19T06:07:54;24.70;35.80
652;DHT22;310;48.490;9.200;2023-06-19T06:10:21;25.00;36.00
652;DHT22;310;48.490;9.200;2023-06-19T06:12:48;25.40;35.70
652;DHT22;310;48.490;9.200;2023-06-19T06:15:13;25.80;36.40
652;DHT22;310;48.490;9.200;2023-06-19T06:17:39;25.50;35.00
652;DHT22;310;48.490;9.200;2023-06-19T06:20:05;25.30;36.30
652;DHT22;310;48.490;9.200;2023-06-19T06:22:37;25.10;35.50
652;DHT22;310;48.490;9.200;2023-06-19T06:25:02;24.80;36.80
652;DHT22;310;48.490;9.200;2023-06-19T06:27:28;24.70;36.60
652;DHT22;310;48.490;9.200;2023-06-19T06:29:54;24.70;36.70
652;DHT22;310;48.490;9.200;2023-06-19T06:32:19;23.90;38.60
652;DHT22;310;48.490;9.200;2023-06-19T06:34:45;23.60;40.70
652;DHT22;310;48.490;9.200;2023-06-19T06:37:10;23.50;41.50
652;DHT22;310;48.490;9.200;2023-06-19T06:39:36;23.90;40.90
652;DHT22;310;48.490;9.200;2023-06-19T06:42:02;24.10;39.70
652;DHT22;310;48.490;9.200;2023-06-19T06:44:27;23.90;40.40
652;DHT22;310;48.490;9.200;2023-06-19T06:46:53;23.90;40.30
652;DHT22;310;48.490;9.200;2023-06-19T06:49:20;24.60;39.70
652;DHT22;310;48.490;9.200;2023-06-19T06:51:47;24.30;38.30
652;DHT22;310;48.490;9.200;2023-06-19T06:54:13;24.70;37.60
652;DHT22;310;48.490;9.200;2023-06-19T06:56:38;24.80;37.00
652;DHT22;310;48.490;9.200;2023-06-19T06:59:04;25.10;36.40
652;DHT22;310;48.490;9.200;2023-06-19T07:01:30;25.60;34.70
652;DHT22;310;48.490;9.200;2023-06-19T07:03:55;25.90;32.70
652;DHT22;310;48.490;9.200;2023-06-19T07:06:21;25.10;35.90
652;DHT22;310;48.490;9.200;2023-06-19T07:08:46;25.40;34.70
652;DHT22;310;48.490;9.200;2023-06-19T07:11:13;25.10;35.20
652;DHT22;310;48.490;9.200;2023-06-19T07:13:39;24.90;37.60
652;DHT22;310;48.490;9.200;2023-06-19T07:16:07;25.30;36.30
652;DHT22;310;48.490;9.200;2023-06-19T07:18:32;25.80;34.70
652;DHT22;310;48.490;9.200;2023-06-19T07:21:00;26.00;34.20
652;DHT22;310;48.490;9.200;2023-06-19T07:23:26;26.50;32.60
652;DHT22;310;48.490;9.200;2023-06-19T07:25:52;26.70;33.00
652;DHT22;310;48.490;9.200;2023-06-19T07:28:17;27.10;32.70
652;DHT22;310;48.490;9.200;2023-06-19T07:30:43;27.30;31.00
652;DHT22;310;48.490;9.200;2023-06-19T07:33:09;27.30;31.00
652;DHT22;310;48.490;9.200;2023-06-19T07:35:35;27.50;30.20
652;DHT22;310;48.490;9.200;2023-06-19T07:38:00;27.30;31.90
652;DHT22;310;48.490;9.200;2023-06-19T07:40:26;27.20;30.80
652;DHT22;310;48.490;9.200;2023-06-19T07:42:52;27.50;30.90
652;DHT22;310;48.490;9.200;2023-06-19T07:45:17;27.70;30.50
652;DHT22;310;48.490;9.200;2023-06-19T07:47:43;28.00;29.50
652;DHT22;310;48.490;9.200;2023-06-19T07:50:09;28.10;29.00
652;DHT22;310;48.490;9.200;2023-06-19T07:52:34;28.40;28.30
652;DHT22;310;48.490;9.200;2023-06-19T07:55:00;28.50;28.30
652;DHT22;310;48.490;9.200;2023-06-19T07:57:26;28.60;27.90
652;DHT22;310;48.490;9.200;2023-06-19T07:59:53;28.60;27.60
652;DHT22;310;48.490;9.200;2023-06-19T08:02:19;28.70;28.90
652;DHT22;310;48.490;9.200;2023-06-19T08:04:45;28.80;27.70
652;DHT22;310;48.490;9.200;2023-06-19T08:07:11;28.90;26.90
652;DHT22;310;48.490;9.200;2023-06-19T08:09:37;29.10;26.20
652;DHT22;310;48.490;9.200;2023-06-19T08:12:02;29.20;26.50
652;DHT22;310;48.490;9.200;2023-06-19T08:14:28;29.00;25.30
652;DHT22;310;48.490;9.200;2023-06-19T08:16:54;29.00;25.70
652;DHT22;310;48.490;9.200;2023-06-19T08:19:20;28.90;24.90
652;DHT22;310;48.490;9.200;2023-06-19T08:21:46;28.70;26.20
652;DHT22;310;48.490;9.200;2023-06-19T08:24:11;28.30;27.90
652;DHT22;310;48.490;9.200;2023-06-19T08:26:37;27.90;27.50
652;DHT22;310;48.490;9.200;2023-06-19T08:29:02;28.00;28.00
652;DHT22;310;48.490;9.200;2023-06-19T08:31:28;28.10;28.50
652;DHT22;310;48.490;9.200;2023-06-19T08:33:54;28.50;27.70
652;DHT22;310;48.490;9.200;2023-06-19T08:36:20;28.70;27.60
652;DHT22;310;48.490;9.200;2023-06-19T08:38:46;28.20;27.60
652;DHT22;310;48.490;9.200;2023-06-19T08:41:19;28.20;26.20
652;DHT22;310;48.490;9.200;2023-06-19T08:43:48;28.80;22.80
652;DHT22;310;48.490;9.200;2023-06-19T08:46:17;27.90;25.40
652;DHT22;310;48.490;9.200;2023-06-19T08:48:43;27.60;24.50
652;DHT22;310;48.490;9.200;2023-06-19T08:51:11;27.60;25.00
652;DHT22;310;48.490;9.200;2023-06-19T08:53:54;27.50;24.40
652;DHT22;310;48.490;9.200;2023-06-19T08:56:19;28.00;23.80
652;DHT22;310;48.490;9.200;2023-06-19T08:58:45;27.50;25.00
652;DHT22;310;48.490;9.200;2023-06-19T09:01:11;27.40;25.20
652;DHT22;310;48.490;9.200;2023-06-19T09:03:36;27.00;26.10
652;DHT22;310;48.490;9.200;2023-06-19T09:06:08;26.80;27.10
652;DHT22;310;48.490;9.200;2023-06-19T09:08:34;26.60;27.80
652;DHT22;310;48.490;9.200;2023-06-19T09:11:01;26.40;28.60
652;DHT22;310;48.490;9.200;2023-06-19T09:13:27;27.00;28.30
652;DHT22;310;48.490;9.200;2023-06-19T09:16:04;26.90;27.40
652;DHT22;310;48.490;9.200;2023-06-19T09:18:31;27.00;27.40
652;DHT22;310;48.490;9.200;2023-06-19T09:20:57;27.30;27.00
652;DHT22;310;48.490;9.200;2023-06-19T09:23:24;28.40;25.70
652;DHT22;310;48.490;9.200;2023-06-19T09:25:53;28.50;24.30
652;DHT22;310;48.490;9.200;2023-06-19T09:28:22;29.20;23.50
652;DHT22;310;48.490;9.200;2023-06-19T09:31:06;28.20;24.80
652;DHT22;310;48.490;9.200;2023-06-19T09:33:34;27.30;26.40
652;DHT22;310;48.490;9.200;2023-06-19T09:36:01;27.50;26.50
652;DHT22;310;48.490;9.200;2023-06-19T09:38:37;28.50;25.20
652;DHT22;310;48.490;9.200;2023-06-19T09:41:05;28.30;24.60
652;DHT22;310;48.490;9.200;2023-06-19T09:43:39;28.10;24.60
652;DHT22;310;48.490;9.200;2023-06-19T09:46:25;28.90;24.20
652;DHT22;310;48.490;9.200;2023-06-19T09:49:00;28.80;23.40
652;DHT22;310;48.490;9.200;2023-06-19T09:51:36;29.10;23.00
652;DHT22;310;48.490;9.200;2023-06-19T09:54:03;29.10;21.60
652;DHT22;310;48.490;9.200;2023-06-19T09:56:31;29.00;22.20
652;DHT22;310;48.490;9.200;2023-06-19T09:58:59;29.20;22.40
652;DHT22;310;48.490;9.200;2023-06-19T10:01:29;28.80;22.10
652;DHT22;310;48.490;9.200;2023-06-19T10:04:04;29.00;21.50
652;DHT22;310;48.490;9.200;2023-06-19T10:06:31;29.40;20.80
652;DHT22;310;48.490;9.200;2023-06-19T10:09:06;29.10;21.40
652;DHT22;310;48.490;9.200;2023-06-19T10:11:52;28.80;21.40
652;DHT22;310;48.490;9.200;2023-06-19T10:14:21;28.80;21.60
652;DHT22;310;48.490;9.200;2023-06-19T10:16:48;28.70;22.10
652;DHT22;310;48.490;9.200;2023-06-19T10:19:16;28.60;22.00
652;DHT22;310;48.490;9.200;2023-06-19T10:21:49;29.00;22.00
652;DHT22;310;48.490;9.200;2023-06-19T10:24:17;29.80;20.00
652;DHT22;310;48.490;9.200;2023-06-19T10:26:57;29.40;20.60
652;DHT22;310;48.490;9.200;2023-06-19T10:29:24;28.60;21.80
652;DHT22;310;48.490;9.200;2023-06-19T10:31:51;29.00;21.50
652;DHT22;310;48.490;9.200;2023-06-19T10:34:17;29.60;20.70
652;DHT22;310;48.490;9.200;2023-06-19T10:36:43;29.70;19.80
652;DHT22;310;48.490;9.200;2023-06-19T10:39:10;28.80;21.10
652;DHT22;310;48.490;9.200;2023-06-19T10:41:39;29.60;21.00
652;DHT22;310;48.490;9.200;2023-06-19T10:44:08;28.80;21.40
652;DHT22;310;48.490;9.200;2023-06-19T10:46:40;28.30;22.60
652;DHT22;310;48.490;9.200;2023-06-19T10:49:08;28.70;23.00
652;DHT22;310;48.490;9.200;2023-06-19T10:51:37;29.50;21.30
652;DHT22;310;48.490;9.200;2023-06-19T10:54:06;29.30;21.50
652;DHT22;310;48.490;9.200;2023-06-19T10:56:33;30.20;19.80
652;DHT22;310;48.490;9.200;2023-06-19T10:59:01;30.70;19.00
652;DHT22;310;48.490;9.200;2023-06-19T11:01:41;29.50;19.90
652;DHT22;310;48.490;9.200;2023-06-19T11:04:09;29.50;19.50
652;DHT22;310;48.490;9.200;2023-06-19T11:06:36;30.00;19.70
652;DHT22;310;48.490;9.200;2023-06-19T11:09:04;30.20;19.50
652;DHT22;310;48.490;9.200;2023-06-19T11:11:44;30.60;18.90
652;DHT22;310;48.490;9.200;2023-06-19T11:14:11;31.10;18.40
652;DHT22;310;48.490;9.200;2023-06-19T11:16:42;30.50;18.80
652;DHT22;310;48.490;9.200;2023-06-19T11:19:21;30.70;18.00
652;DHT22;310;48.490;9.200;2023-06-19T11:21:52;31.40;18.70
652;DHT22;310;48.490;9.200;2023-06-19T11:24:29;31.40;18.10
652;DHT22;310;48.490;9.200;2023-06-19T11:27:13;31.80;18.00
652;DHT22;310;48.490;9.200;2023-06-19T11:29:44;31.20;18.20
652;DHT22;310;48.490;9.200;2023-06-19T11:32:16;31.40;18.20
652;DHT22;310;48.490;9.200;2023-06-19T11:35:03;32.60;16.80
652;DHT22;310;48.490;9.200;2023-06-19T11:37:29;33.70;16.50
652;DHT22;310;48.490;9.200;2023-06-19T11:39:57;33.60;14.30
652;DHT22;310;48.490;9.200;2023-06-19T11:42:23;33.10;15.30
652;DHT22;310;48.490;9.200;2023-06-19T11:44:56;33.00;15.10
652;DHT22;310;48.490;9.200;2023-06-19T11:47:22;33.00;14.00
652;DHT22;310;48.490;9.200;2023-06-19T11:49:49;32.30;16.00
652;DHT22;310;48.490;9.200;2023-06-19T11:52:16;32.70;15.00
652;DHT22;310;48.490;9.200;2023-06-19T11:54:42;33.60;14.00
652;DHT22;310;48.490;9.200;2023-06-19T11:57:12;34.00;13.90
652;DHT22;310;48.490;9.200;2023-06-19T11:59:41;33.60;13.80
652;DHT22;310;48.490;9.200;2023-06-19T12:02:08;34.30;13.40
652;DHT22;310;48.490;9.200;2023-06-19T12:04:35;35.80;11.80
652;DHT22;310;48.490;9.200;2023-06-19T12:07:04;36.70;11.00
652;DHT22;310;48.490;9.200;2023-06-19T12:09:33;38.30;8.70
652;DHT22;310;48.490;9.200;2023-06-19T12:12:00;38.70;8.40
652;DHT22;310;48.490;9.200;2023-06-19T12:14:26;38.60;7.40
652;DHT22;310;48.490;9.200;2023-06-19T12:16:52;38.40;8.00
652;DHT22;310;48.490;9.200;2023-06-19T12:19:17;37.70;9.40
652;DHT22;310;48.490;9.200;2023-06-19T12:21:43;38.80;8.00
652;DHT22;310;48.490;9.200;2023-06-19T12:24:09;38.20;8.20
652;DHT22;310;48.490;9.200;2023-06-19T12:26:35;35.50;10.20
652;DHT22;310;48.490;9.200;2023-06-19T12:29:06;34.80;12.00
652;DHT22;310;48.490;9.200;2023-06-19T12:31:32;36.30;10.30
652;DHT22;310;48.490;9.200;2023-06-19T12:33:58;34.90;10.70
652;DHT22;310;48.490;9.200;2023-06-19T12:36:25;33.60;11.90
652;DHT22;310;48.490;9.200;2023-06-19T12:38:53;33.30;12.60
652;DHT22;310;48.490;9.200;2023-06-19T12:41:22;34.70;13.30
652;DHT22;310;48.490;9.200;2023-06-19T12:43:48;36.80;10.70
652;DHT22;310;48.490;9.200;2023-06-19T12:46:14;38.00;9.60
652;DHT22;310;48.490;9.200;2023-06-19T12:48:41;38.40;7.80
652;DHT22;310;48.490;9.200;2023-06-19T12:51:07;38.10;8.60
652;DHT22;310;48.490;9.200;2023-06-19T12:53:33;36.30;9.20
652;DHT22;310;48.490;9.200;2023-06-19T12:55:59;35.20;10.80
652;DHT22;310;48.490;9.200;2023-06-19T12:58:25;34.70;12.40
652;DHT22;310;48.490;9.200;2023-06-19T13:00:51;36.10;10.30
652;DHT22;310;48.490;9.200;2023-06-19T13:03:16;35.90;10.50
652;DHT22;310;48.490;9.200;2023-06-19T13:05:42;36.80;9.90
652;DHT22;310;48.490;9.200;2023-06-19T13:08:07;37.10;9.00
652;DHT22;310;48.490;9.200;2023-06-19T13:10:33;37.20;8.80
652;DHT22;310;48.490;9.200;2023-06-19T13:12:59;35.50;10.20
652;DHT22;310;48.490;9.200;2023-06-19T13:15:24;35.20;11.30
652;DHT22;310;48.490;9.200;2023-06-19T13:17:50;34.00;11.70
652;DHT22;310;48.490;9.200;2023-06-19T13:20:16;33.20;13.80
652;DHT22;310;48.490;9.200;2023-06-19T13:22:42;33.10;13.10
652;DHT22;310;48.490;9.200;2023-06-19T13:25:08;32.70;13.20
652;DHT22;310;48.490;9.200;2023-06-19T13:27:33;33.30;13.20
652;DHT22;310;48.490;9.200;2023-06-19T13:30:00;33.70;12.60
652;DHT22;310;48.490;9.200;2023-06-19T13:32:26;33.70;12.10
652;DHT22;310;48.490;9.200;2023-06-19T13:34:51;33.60;13.40
652;DHT22;310;48.490;9.200;2023-06-19T13:37:18;32.50;13.90
652;DHT22;310;48.490;9.200;2023-06-19T13:39:43;32.30;14.00
652;DHT22;310;48.490;9.200;2023-06-19T13:42:09;32.00;14.70
652;DHT22;310;48.490;9.200;2023-06-19T13:44:36;32.20;14.60
652;DHT22;310;48.490;9.200;2023-06-19T13:47:02;33.10;13.80
652;DHT22;310;48.490;9.200;2023-06-19T13:49:27;33.20;13.40
652;DHT22;310;48.490;9.200;2023-06-19T13:51:54;32.50;14.50
652;DHT22;310;48.490;9.200;2023-06-19T13:54:20;32.80;13.70
652;DHT22;310;48.490;9.200;2023-06-19T13:56:46;32.90;14.90
652;DHT22;310;48.490;9.200;2023-06-19T13:59:12;33.10;13.60
652;DHT22;310;48.490;9.200;2023-06-19T14:01:38;32.50;14.10
652;DHT22;310;48.490;9.200;2023-06-19T14:04:04;32.30;14.20
652;DHT22;310;48.490;9.200;2023-06-19T14:06:30;32.80;14.50
652;DHT22;310;48.490;9.200;2023-06-19T14:08:55;32.30;14.40
652;DHT22;310;48.490;9.200;2023-06-19T14:11:21;32.70;13.70
652;DHT22;310;48.490;9.200;2023-06-19T14:13:47;32.50;13.90
652;DHT22;310;48.490;9.200;2023-06-19T14:16:12;32.60;14.30
652;DHT22;310;48.490;9.200;2023-06-19T14:18:38;32.70;13.40
652;DHT22;310;48.490;9.200;2023-06-19T14:21:04;33.10;13.10
652;DHT22;310;48.490;9.200;2023-06-19T14:23:29;33.80;12.10
652;DHT22;310;48.490;9.200;2023-06-19T14:25:55;33.60;12.40
652;DHT22;310;48.490;9.200;2023-06-19T14:28:21;33.30;12.50
652;DHT22;310;48.490;9.200;2023-06-19T14:30:47;34.00;13.70
652;DHT22;310;48.490;9.200;2023-06-19T14:33:12;34.50;12.20
652;DHT22;310;48.490;9.200;2023-06-19T14:35:43;34.80;11.70
652;DHT22;310;48.490;9.200;2023-06-19T14:38:15;35.50;11.50
652;DHT22;310;48.490;9.200;2023-06-19T14:40:41;34.80;11.00
652;DHT22;310;48.490;9.200;2023-06-19T14:43:06;34.50;11.90
652;DHT22;310;48.490;9.200;2023-06-19T14:45:34;34.90;11.80
652;DHT22;310;48.490;9.200;2023-06-19T14:47:59;35.10;12.50
652;DHT22;310;48.490;9.200;2023-06-19T14:50:25;34.30;11.50
652;DHT22;310;48.490;9.200;2023-06-19T14:52:51;33.40;12.60
652;DHT22;310;48.490;9.200;2023-06-19T14:55:16;32.80;13.70
652;DHT22;310;48.490;9.200;2023-06-19T14:57:42;32.30;14.50
652;DHT22;310;48.490;9.200;2023-06-19T15:00:08;32.50;14.10
652;DHT22;310;48.490;9.200;2023-06-19T15:02:34;32.30;14.30
652;DHT22;310;48.490;9.200;2023-06-19T15:05:00;32.10;14.80
652;DHT22;310;48.490;9.200;2023-06-19T15:07:25;32.00;14.40
652;DHT22;310;48.490;9.200;2023-06-19T15:09:51;32.00;14.50
652;DHT22;310;48.490;9.200;2023-06-19T15:12:17;31.60;15.40
652;DHT22;310;48.490;9.200;2023-06-19T15:14:42;31.60;15.70
652;DHT22;310;48.490;9.200;2023-06-19T15:17:08;32.00;15.50
652;DHT22;310;48.490;9.200;2023-06-19T15:19:34;32.10;15.50
652;DHT22;310;48.490;9.200;2023-06-19T15:21:59;32.00;15.30
652;DHT22;310;48.490;9.200;2023-06-19T15:24:25;31.80;14.70
652;DHT22;310;48.490;9.200;2023-06-19T15:26:50;31.30;15.10
652;DHT22;310;48.490;9.200;2023-06-19T15:29:16;31.20;15.70
652;DHT22;310;48.490;9.200;2023-06-19T15:31:42;30.90;16.00
652;DHT22;310;48.490;9.200;2023-06-19T15:34:07;31.60;15.20
652;DHT22;310;48.490;9.200;2023-06-19T15:36:33;31.20;15.20
652;DHT22;310;48.490;9.200;2023-06-19T15:38:59;31.20;15.30
652;DHT22;310;48.490;9.200;2023-06-19T15:41:24;31.60;16.00
652;DHT22;310;48.490;9.200;2023-06-19T15:43:50;32.40;14.90
652;DHT22;310;48.490;9.200;2023-06-19T15:46:15;32.50;16.20
652;DHT22;310;48.490;9.200;2023-06-19T15:48:42;32.30;17.90
652;DHT22;310;48.490;9.200;2023-06-19T15:51:09;31.60;23.20
652;DHT22;310;48.490;9.200;2023-06-19T15:53:37;30.70;26.30
652;DHT22;310;48.490;9.200;2023-06-19T15:56:03;30.30;27.30
652;DHT22;310;48.490;9.200;2023-06-19T15:58:28;29.70;32.70
652;DHT22;310;48.490;9.200;2023-06-19T16:00:54;29.30;34.50
652;DHT22;310;48.490;9.200;2023-06-19T16:03:20;28.80;36.90
652;DHT22;310;48.490;9.200;2023-06-19T16:05:47;28.80;38.90
652;DHT22;310;48.490;9.200;2023-06-19T16:08:19;28.90;38.00
652;DHT22;310;48.490;9.200;2023-06-19T16:10:45;28.90;38.90
652;DHT22;310;48.490;9.200;2023-06-19T16:13:12;28.90;35.80
652;DHT22;310;48.490;9.200;2023-06-19T16:15:38;28.90;40.10
652;DHT22;310;48.490;9.200;2023-06-19T16:18:03;28.90;39.90
652;DHT22;310;48.490;9.200;2023-06-19T16:20:29;28.90;40.10
652;DHT22;310;48.490;9.200;2023-06-19T16:22:55;28.90;39.70
652;DHT22;310;48.490;9.200;2023-06-19T16:25:21;28.90;40.70
652;DHT22;310;48.490;9.200;2023-06-19T16:27:48;28.80;41.00
652;DHT22;310;48.490;9.200;2023-06-19T16:30:14;28.80;42.00
652;DHT22;310;48.490;9.200;2023-06-19T16:32:40;28.70;42.30
652;DHT22;310;48.490;9.200;2023-06-19T16:35:06;28.70;42.30
652;DHT22;310;48.490;9.200;2023-06-19T16:37:31;28.70;42.80